createdAt,value
2023-02-11T00:00:42.628Z,100482.88
2023-02-11T00:03:09.550Z,100483.59
2023-02-11T00:05:36.042Z,100481.22
2023-02-11T00:08:02.507Z,100477.78
2023-02-11T00:10:29.012Z,100472.25
2023-02-11T00:12:56.407Z,100476.78
2023-02-11T00:15:23.113Z,100478.75
2023-02-11T00:17:49.644Z,100480.50
2023-02-11T00:20:16.217Z,100481.94
2023-02-11T00:22:42.794Z,100479.97
2023-02-11T00:25:09.302Z,100470.41
2023-02-11T00:27:37.038Z,100457.16
2023-02-11T00:30:05.264Z,100454.28
2023-02-11T00:32:32.049Z,100464.53
2023-02-11T00:34:58.552Z,100457.44
2023-02-11T00:37:25.047Z,100467.00
2023-02-11T00:39:51.529Z,100461.38
2023-02-11T00:42:18.044Z,100461.06
2023-02-11T00:44:45.041Z,100460.50
2023-02-11T00:47:11.572Z,100458.47
2023-02-11T00:49:40.231Z,100458.47
2023-02-11T00:52:06.777Z,100458.09
2023-02-11T00:54:34.390Z,100461.91
2023-02-11T00:57:01.000Z,100463.19
2023-02-11T00:59:27.477Z,100458.56
2023-02-11T01:01:54.143Z,100456.94
2023-02-11T01:04:20.576Z,100460.38
2023-02-11T01:06:47.569Z,100470.22
2023-02-11T01:09:14.069Z,100472.81
2023-02-11T01:11:40.559Z,100466.56
2023-02-11T01:14:07.272Z,100452.88
2023-02-11T01:16:33.880Z,100457.03
2023-02-11T01:19:00.497Z,100454.50
2023-02-11T01:21:27.290Z,100455.19
2023-02-11T01:23:53.782Z,100451.75
2023-02-11T01:26:20.609Z,100447.09
2023-02-11T01:28:47.667Z,100448.84
2023-02-11T01:31:15.091Z,100452.34
2023-02-11T01:33:42.086Z,100455.88
2023-02-11T01:36:11.341Z,100447.03
2023-02-11T01:38:40.091Z,100440.69
2023-02-11T01:41:10.418Z,100449.91
2023-02-11T01:43:45.078Z,100448.38
2023-02-11T01:46:29.260Z,100445.03
2023-02-11T01:49:16.255Z,100437.63
2023-02-11T01:51:56.390Z,100431.44
2023-02-11T01:54:44.784Z,100417.06
2023-02-11T01:57:24.741Z,100413.59
2023-02-11T02:00:21.681Z,100408.69
2023-02-11T02:03:01.381Z,100409.31
2023-02-11T02:05:44.381Z,100395.81
2023-02-11T02:08:32.056Z,100406.28
2023-02-11T02:11:00.880Z,100403.69
2023-02-11T02:13:30.997Z,100405.81
2023-02-11T02:16:03.436Z,100400.84
2023-02-11T02:19:02.799Z,100404.22
2023-02-11T02:22:20.395Z,100397.81
2023-02-11T02:25:00.995Z,100393.00
2023-02-11T02:27:48.918Z,100383.44
2023-02-11T02:30:30.592Z,100376.06
2023-02-11T02:33:24.167Z,100395.81
2023-02-11T02:36:07.877Z,100388.59
2023-02-11T02:38:43.420Z,100388.47
2023-02-11T02:41:15.569Z,100385.19
2023-02-11T02:43:45.699Z,100380.56
2023-02-11T02:46:17.528Z,100383.16
2023-02-11T02:48:45.755Z,100377.09
2023-02-11T02:51:43.228Z,100363.03
2023-02-11T02:54:21.763Z,100377.81
2023-02-11T02:57:22.181Z,100378.19
2023-02-11T03:00:06.971Z,100382.22
2023-02-11T03:02:42.302Z,100384.44
2023-02-11T03:05:31.551Z,100385.63
2023-02-11T03:08:11.100Z,100389.66
2023-02-11T03:10:43.104Z,100390.25
2023-02-11T03:13:10.618Z,100393.88
2023-02-11T03:15:44.385Z,100395.06
2023-02-11T03:18:15.508Z,100383.38
2023-02-11T03:20:45.063Z,100395.13
2023-02-11T03:23:19.258Z,100399.34
2023-02-11T03:25:50.944Z,100405.81
2023-02-11T03:28:31.142Z,100408.31
2023-02-11T03:31:34.054Z,100404.34
2023-02-11T03:34:12.614Z,100399.09
2023-02-11T03:36:45.859Z,100388.00
2023-02-11T03:39:16.637Z,100389.44
2023-02-11T03:41:46.058Z,100400.38
2023-02-11T03:44:15.932Z,100396.09
2023-02-11T03:46:47.825Z,100401.13
2023-02-11T03:49:16.925Z,100387.66
2023-02-11T03:51:44.002Z,100396.53
2023-02-11T03:54:15.211Z,100389.09
2023-02-11T03:56:49.826Z,100401.22
2023-02-11T03:59:16.318Z,100402.84
2023-02-11T04:01:42.779Z,100386.75
2023-02-11T04:04:09.302Z,100383.84
2023-02-11T04:06:35.766Z,100374.44
2023-02-11T04:09:02.884Z,100358.28
2023-02-11T04:11:29.414Z,100346.41
2023-02-11T04:13:55.871Z,100347.63
2023-02-11T04:16:22.588Z,100341.53
2023-02-11T04:18:49.165Z,100339.69
2023-02-11T04:21:15.621Z,100337.03
2023-02-11T04:23:42.061Z,100332.44
2023-02-11T04:26:08.536Z,100344.69
2023-02-11T04:28:36.244Z,100340.34
2023-02-11T04:31:02.875Z,100342.81
2023-02-11T04:33:29.380Z,100334.69
2023-02-11T04:35:55.904Z,100318.00
2023-02-11T04:38:24.081Z,100303.41
2023-02-11T04:40:50.969Z,100298.81
2023-02-11T04:43:17.482Z,100302.69
2023-02-11T04:45:43.990Z,100305.75
2023-02-11T04:48:10.510Z,100300.97
2023-02-11T04:50:37.029Z,100305.69
2023-02-11T04:53:03.506Z,100294.88
2023-02-11T04:55:29.964Z,100294.94
2023-02-11T04:57:56.434Z,100288.19
2023-02-11T05:00:22.976Z,100294.00
2023-02-11T05:02:49.471Z,100292.53
2023-02-11T05:05:16.195Z,100294.03
2023-02-11T05:07:43.047Z,100301.06
2023-02-11T05:10:09.763Z,100293.47
2023-02-11T05:12:36.231Z,100292.47
2023-02-11T05:15:02.718Z,100293.88
2023-02-11T05:17:29.179Z,100296.66
2023-02-11T05:19:55.742Z,100287.72
2023-02-11T05:22:22.362Z,100304.50
2023-02-11T05:24:48.860Z,100316.66
2023-02-11T05:27:15.335Z,100323.44
2023-02-11T05:29:41.754Z,100340.94
2023-02-11T05:32:09.037Z,100328.69
2023-02-11T05:34:36.379Z,100335.03
2023-02-11T05:37:02.940Z,100334.38
2023-02-11T05:39:29.366Z,100346.47
2023-02-11T05:41:55.860Z,100348.38
2023-02-11T05:44:22.365Z,100348.91
2023-02-11T05:46:49.352Z,100339.22
2023-02-11T05:49:16.948Z,100340.94
2023-02-11T05:51:43.598Z,100333.50
2023-02-11T05:54:10.492Z,100326.47
2023-02-11T05:56:37.025Z,100324.31
2023-02-11T05:59:03.541Z,100327.75
2023-02-11T06:01:30.196Z,100321.94
2023-02-11T06:03:57.066Z,100319.56
2023-02-11T06:06:23.634Z,100329.75
2023-02-11T06:08:50.144Z,100317.84
2023-02-11T06:11:17.695Z,100313.72
2023-02-11T06:13:44.276Z,100316.66
2023-02-11T06:16:10.879Z,100316.81
2023-02-11T06:18:37.495Z,100309.19
2023-02-11T06:21:07.866Z,100306.09
2023-02-11T06:23:34.343Z,100306.25
2023-02-11T06:26:05.838Z,100295.56
2023-02-11T06:28:32.952Z,100291.78
2023-02-11T06:31:06.589Z,100292.78
2023-02-11T06:33:34.379Z,100298.38
2023-02-11T06:36:01.152Z,100311.34
2023-02-11T06:38:28.244Z,100311.47
2023-02-11T06:40:54.847Z,100310.88
2023-02-11T06:43:21.418Z,100309.69
2023-02-11T06:45:55.814Z,100313.13
2023-02-11T06:48:23.621Z,100321.69
2023-02-11T06:50:50.078Z,100326.28
2023-02-11T06:53:16.545Z,100330.88
2023-02-11T06:55:43.192Z,100338.53
2023-02-11T06:58:09.705Z,100334.44
2023-02-11T07:00:36.858Z,100336.34
2023-02-11T07:03:03.606Z,100334.31
2023-02-11T07:05:30.530Z,100327.19
2023-02-11T07:07:57.355Z,100325.56
2023-02-11T07:10:23.826Z,100328.81
2023-02-11T07:12:50.289Z,100333.50
2023-02-11T07:15:16.741Z,100341.13
2023-02-11T07:17:43.361Z,100338.28
2023-02-11T07:20:12.400Z,100346.22
2023-02-11T07:22:38.907Z,100351.19
2023-02-11T07:25:06.254Z,100353.16
2023-02-11T07:27:33.161Z,100341.19
2023-02-11T07:29:59.609Z,100339.63
2023-02-11T07:32:26.139Z,100341.44
2023-02-11T07:34:52.667Z,100329.56
2023-02-11T07:37:19.818Z,100335.50
2023-02-11T07:39:46.259Z,100329.72
2023-02-11T07:42:12.790Z,100325.41
2023-02-11T07:44:39.246Z,100330.00
2023-02-11T07:47:05.782Z,100333.66
2023-02-11T07:49:32.369Z,100337.44
2023-02-11T07:51:58.873Z,100339.69
2023-02-11T07:54:25.332Z,100339.97
2023-02-11T07:56:51.964Z,100343.44
2023-02-11T07:59:18.719Z,100339.34
2023-02-11T08:01:45.508Z,100340.75
2023-02-11T08:04:12.075Z,100348.38
2023-02-11T08:06:42.266Z,100352.66
2023-02-11T08:09:14.026Z,100345.56
2023-02-11T08:11:41.332Z,100354.41
2023-02-11T08:14:08.815Z,100348.97
2023-02-11T08:16:36.484Z,100346.66
2023-02-11T08:19:07.312Z,100351.50
2023-02-11T08:21:34.045Z,100344.94
2023-02-11T08:24:03.036Z,100359.81
2023-02-11T08:26:31.852Z,100368.63
2023-02-11T08:28:59.368Z,100362.16
2023-02-11T08:31:28.935Z,100364.94
2023-02-11T08:33:58.102Z,100358.06
2023-02-11T08:36:30.647Z,100359.78
2023-02-11T08:39:17.653Z,100359.31
2023-02-11T08:41:48.646Z,100362.03
2023-02-11T08:44:15.146Z,100355.09
2023-02-11T08:46:41.604Z,100358.94
2023-02-11T08:49:08.119Z,100357.50
2023-02-11T08:51:34.600Z,100345.44
2023-02-11T08:54:01.684Z,100354.34
2023-02-11T08:56:31.042Z,100365.47
2023-02-11T08:58:57.650Z,100369.03
2023-02-11T09:01:27.087Z,100365.16
2023-02-11T09:03:54.341Z,100372.47
2023-02-11T09:06:22.653Z,100363.84
2023-02-11T09:08:51.323Z,100359.38
2023-02-11T09:11:20.702Z,100362.28
2023-02-11T09:13:47.289Z,100348.66
2023-02-11T09:16:23.487Z,100357.59
2023-02-11T09:18:50.465Z,100349.19
2023-02-11T09:21:19.069Z,100356.09
2023-02-11T09:23:47.960Z,100356.81
2023-02-11T09:26:26.167Z,100359.72
2023-02-11T09:28:53.180Z,100363.22
2023-02-11T09:31:22.444Z,100364.28
2023-02-11T09:33:51.265Z,100357.94
2023-02-11T09:36:24.184Z,100369.59
2023-02-11T09:38:51.225Z,100376.41
2023-02-11T09:41:24.046Z,100381.88
2023-02-11T09:43:57.165Z,100383.25
2023-02-11T09:46:25.730Z,100385.41
2023-02-11T09:48:55.288Z,100395.47
2023-02-11T09:51:36.191Z,100399.06
2023-02-11T09:54:13.044Z,100405.78
2023-02-11T09:56:39.859Z,100408.41
2023-02-11T09:59:13.807Z,100401.13
2023-02-11T10:01:50.365Z,100389.00
2023-02-11T10:04:53.221Z,100392.69
2023-02-11T10:07:37.011Z,100386.28
2023-02-11T10:10:28.407Z,100384.88
2023-02-11T10:13:04.033Z,100384.84
2023-02-11T10:15:39.336Z,100388.00
2023-02-11T10:18:33.484Z,100390.94
2023-02-11T10:21:21.788Z,100392.31
2023-02-11T10:23:52.483Z,100396.59
2023-02-11T10:26:20.318Z,100403.88
2023-02-11T10:28:54.259Z,100398.78
2023-02-11T10:31:31.378Z,100404.16
2023-02-11T10:34:09.279Z,100405.97
2023-02-11T10:36:38.877Z,100407.19
2023-02-11T10:39:14.509Z,100406.72
2023-02-11T10:41:55.054Z,100404.06
2023-02-11T10:44:32.176Z,100400.25
2023-02-11T10:47:05.107Z,100395.94
2023-02-11T10:49:37.749Z,100390.19
2023-02-11T10:52:13.602Z,100385.97
2023-02-11T10:54:40.458Z,100383.16
2023-02-11T10:57:07.752Z,100380.16
2023-02-11T10:59:40.542Z,100378.28
2023-02-11T11:02:24.584Z,100380.16
2023-02-11T11:04:57.276Z,100376.28
2023-02-11T11:07:28.202Z,100378.88
2023-02-11T11:09:56.939Z,100373.03
2023-02-11T11:12:43.606Z,100370.38
2023-02-11T11:15:10.488Z,100379.00
2023-02-11T11:17:38.245Z,100373.91
2023-02-11T11:20:15.560Z,100374.84
2023-02-11T11:22:43.649Z,100381.22
2023-02-11T11:25:24.353Z,100367.00
2023-02-11T11:27:54.150Z,100375.81
2023-02-11T11:30:23.429Z,100371.47
2023-02-11T11:32:50.160Z,100366.94
2023-02-11T11:35:28.118Z,100368.41
2023-02-11T11:38:03.200Z,100370.63
2023-02-11T11:40:32.209Z,100360.59
2023-02-11T11:43:15.467Z,100371.59
2023-02-11T11:45:59.253Z,100367.13
2023-02-11T11:48:37.881Z,100367.34
2023-02-11T11:51:07.039Z,100368.75
2023-02-11T11:53:53.636Z,100367.66
2023-02-11T11:56:22.792Z,100369.31
2023-02-11T11:58:50.251Z,100370.03
2023-02-11T12:01:35.433Z,100380.78
2023-02-11T12:04:23.487Z,100371.25
2023-02-11T12:07:05.394Z,100368.88
2023-02-11T12:09:53.235Z,100364.69
2023-02-11T12:12:32.758Z,100369.91
2023-02-11T12:15:08.385Z,100368.41
2023-02-11T12:17:47.151Z,100365.88
2023-02-11T12:20:33.442Z,100378.53
2023-02-11T12:23:27.925Z,100375.81
2023-02-11T12:26:15.053Z,100377.75
2023-02-11T12:29:05.947Z,100367.66
2023-02-11T12:31:59.837Z,100376.13
2023-02-11T12:34:52.661Z,100373.41
2023-02-11T12:37:46.705Z,100370.19
2023-02-11T12:40:18.982Z,100365.19
2023-02-11T12:43:16.475Z,100367.63
2023-02-11T12:46:27.168Z,100367.97
2023-02-11T12:49:02.729Z,100364.63
2023-02-11T12:51:55.180Z,100356.38
2023-02-11T12:54:35.883Z,100362.78
2023-02-11T12:57:23.029Z,100362.63
2023-02-11T13:00:07.475Z,100360.16
2023-02-11T13:02:54.274Z,100357.09
2023-02-11T13:05:29.754Z,100357.38
2023-02-11T13:08:04.672Z,100358.53
2023-02-11T13:10:38.027Z,100351.69
2023-02-11T13:13:18.225Z,100356.63
2023-02-11T13:16:07.966Z,100361.03
2023-02-11T13:18:40.573Z,100354.16
2023-02-11T13:21:16.369Z,100354.28
2023-02-11T13:24:08.085Z,100358.81
2023-02-11T13:26:41.151Z,100353.78
2023-02-11T13:29:30.081Z,100342.38
2023-02-11T13:32:06.456Z,100333.66
2023-02-11T13:34:41.980Z,100335.66
2023-02-11T13:37:23.592Z,100342.00
2023-02-11T13:40:19.396Z,100343.56
2023-02-11T13:42:53.285Z,100345.56
2023-02-11T13:45:43.620Z,100348.19
2023-02-11T13:48:32.714Z,100352.00
2023-02-11T13:51:02.910Z,100346.53
2023-02-11T13:53:30.364Z,100343.66
2023-02-11T13:56:22.946Z,100342.38
2023-02-11T13:58:51.205Z,100340.94
2023-02-11T14:01:42.669Z,100347.84
2023-02-11T14:04:45.157Z,100345.69
2023-02-11T14:07:51.324Z,100342.72
2023-02-11T14:10:42.865Z,100336.16
2023-02-11T14:13:27.820Z,100331.16
2023-02-11T14:16:06.889Z,100339.34
2023-02-11T14:18:39.823Z,100329.97
2023-02-11T14:21:31.259Z,100335.75
2023-02-11T14:24:11.776Z,100334.97
2023-02-11T14:26:59.781Z,100335.19
2023-02-11T14:30:03.648Z,100322.41
2023-02-11T14:32:56.825Z,100323.13
2023-02-11T14:35:35.955Z,100320.22
2023-02-11T14:38:35.123Z,100323.28
2023-02-11T14:41:06.627Z,100322.81
2023-02-11T14:43:46.275Z,100331.16
2023-02-11T14:46:15.844Z,100333.41
2023-02-11T14:48:46.769Z,100329.72
2023-02-11T14:51:23.403Z,100340.34
2023-02-11T14:53:53.090Z,100333.44
2023-02-11T14:56:26.346Z,100327.84
2023-02-11T14:58:55.290Z,100341.66
2023-02-11T15:01:38.267Z,100337.97
2023-02-11T15:04:21.457Z,100350.59
2023-02-11T15:06:51.443Z,100353.56
2023-02-11T15:09:20.437Z,100346.31
2023-02-11T15:11:49.476Z,100356.19
2023-02-11T15:14:18.917Z,100352.38
2023-02-11T15:16:50.789Z,100343.19
2023-02-11T15:19:30.343Z,100341.91
2023-02-11T15:21:59.312Z,100334.63
2023-02-11T15:24:29.641Z,100332.03
2023-02-11T15:27:08.367Z,100335.94
2023-02-11T15:29:39.263Z,100342.00
2023-02-11T15:32:12.474Z,100346.91
2023-02-11T15:34:39.222Z,100342.97
2023-02-11T15:37:06.272Z,100340.72
2023-02-11T15:39:37.455Z,100334.88
2023-02-11T15:42:24.306Z,100336.28
2023-02-11T15:45:21.079Z,100335.56
2023-02-11T15:47:53.854Z,100331.66
2023-02-11T15:50:23.528Z,100344.84
2023-02-11T15:52:50.750Z,100346.88
2023-02-11T15:55:18.636Z,100341.28
2023-02-11T15:57:56.194Z,100352.00
2023-02-11T16:00:25.402Z,100350.94
2023-02-11T16:02:53.251Z,100354.97
2023-02-11T16:05:35.174Z,100352.34
2023-02-11T16:08:19.937Z,100350.94
2023-02-11T16:10:58.881Z,100355.31
2023-02-11T16:13:28.119Z,100359.94
2023-02-11T16:16:03.894Z,100368.09
2023-02-11T16:18:51.990Z,100374.84
2023-02-11T16:21:39.464Z,100386.13
2023-02-11T16:24:08.059Z,100376.25
2023-02-11T16:26:39.325Z,100375.91
2023-02-11T16:29:27.431Z,100381.41
2023-02-11T16:32:05.401Z,100387.47
2023-02-11T16:34:31.963Z,100385.34
2023-02-11T16:36:58.627Z,100380.72
2023-02-11T16:39:25.146Z,100388.84
2023-02-11T16:41:51.850Z,100396.16
2023-02-11T16:44:18.758Z,100397.88
2023-02-11T16:46:45.946Z,100393.88
2023-02-11T16:49:21.940Z,100400.91
2023-02-11T16:51:51.514Z,100397.59
2023-02-11T16:54:18.739Z,100399.31
2023-02-11T16:56:45.950Z,100401.81
2023-02-11T16:59:12.977Z,100403.75
2023-02-11T17:01:41.454Z,100398.03
2023-02-11T17:04:23.580Z,100403.03
2023-02-11T17:06:50.588Z,100401.59
2023-02-11T17:09:23.439Z,100402.56
2023-02-11T17:11:50.358Z,100394.09
2023-02-11T17:14:17.979Z,100400.44
2023-02-11T17:16:46.310Z,100403.88
2023-02-11T17:19:15.896Z,100404.44
2023-02-11T17:21:43.773Z,100409.00
2023-02-11T17:24:10.823Z,100404.50
2023-02-11T17:26:38.825Z,100402.81
2023-02-11T17:29:06.986Z,100400.53
2023-02-11T17:31:34.040Z,100411.97
2023-02-11T17:34:00.606Z,100418.91
2023-02-11T17:36:27.268Z,100415.50
2023-02-11T17:38:55.740Z,100420.53
2023-02-11T17:41:22.628Z,100414.47
2023-02-11T17:43:49.368Z,100427.88
2023-02-11T17:46:15.958Z,100421.41
2023-02-11T17:48:43.011Z,100423.84
2023-02-11T17:51:31.593Z,100423.41
2023-02-11T17:54:00.760Z,100429.59
2023-02-11T17:56:27.605Z,100421.31
2023-02-11T17:58:54.118Z,100426.56
2023-02-11T18:01:20.967Z,100436.81
2023-02-11T18:03:47.925Z,100435.66
2023-02-11T18:06:15.177Z,100427.38
2023-02-11T18:08:43.176Z,100429.94
2023-02-11T18:11:11.595Z,100432.56
2023-02-11T18:13:38.585Z,100431.44
2023-02-11T18:16:08.397Z,100432.88
2023-02-11T18:18:35.595Z,100430.06
2023-02-11T18:21:08.867Z,100433.97
2023-02-11T18:23:36.288Z,100433.72
2023-02-11T18:26:07.350Z,100427.03
2023-02-11T18:28:34.112Z,100435.19
2023-02-11T18:31:01.297Z,100439.16
2023-02-11T18:33:29.686Z,100446.03
2023-02-11T18:35:57.043Z,100453.25
2023-02-11T18:38:24.063Z,100449.28
2023-02-11T18:40:52.244Z,100444.47
2023-02-11T18:43:20.070Z,100447.19
2023-02-11T18:45:48.217Z,100451.75
2023-02-11T18:48:15.534Z,100451.28
2023-02-11T18:50:44.443Z,100463.84
2023-02-11T18:53:12.719Z,100453.84
2023-02-11T18:55:40.843Z,100454.66
2023-02-11T18:58:07.427Z,100449.97
2023-02-11T19:00:35.046Z,100449.38
2023-02-11T19:03:01.612Z,100442.19
2023-02-11T19:05:33.497Z,100442.72
2023-02-11T19:08:01.233Z,100446.28
2023-02-11T19:10:28.452Z,100453.94
2023-02-11T19:12:56.393Z,100448.19
2023-02-11T19:15:23.180Z,100447.56
2023-02-11T19:17:49.745Z,100436.44
2023-02-11T19:20:16.867Z,100444.97
2023-02-11T19:22:43.606Z,100437.94
2023-02-11T19:25:11.273Z,100436.28
2023-02-11T19:27:41.576Z,100446.09
2023-02-11T19:30:10.355Z,100443.44
2023-02-11T19:32:37.388Z,100446.50
2023-02-11T19:35:04.265Z,100445.59
2023-02-11T19:37:30.795Z,100441.91
2023-02-11T19:39:57.346Z,100437.72
2023-02-11T19:42:26.553Z,100444.72
2023-02-11T19:44:54.284Z,100438.03
2023-02-11T19:47:27.542Z,100435.94
2023-02-11T19:49:54.499Z,100439.19
2023-02-11T19:52:21.046Z,100444.66
2023-02-11T19:54:47.529Z,100442.66
2023-02-11T19:57:14.052Z,100443.50
2023-02-11T19:59:40.874Z,100448.16
2023-02-11T20:02:08.031Z,100449.88
2023-02-11T20:04:34.675Z,100442.41
2023-02-11T20:07:01.156Z,100447.56
2023-02-11T20:09:29.012Z,100442.63
2023-02-11T20:11:55.545Z,100458.41
2023-02-11T20:14:22.144Z,100460.91
2023-02-11T20:16:50.109Z,100462.09
2023-02-11T20:19:19.988Z,100471.81
2023-02-11T20:21:48.387Z,100460.19
2023-02-11T20:24:17.129Z,100465.75
2023-02-11T20:26:45.185Z,100478.28
2023-02-11T20:29:12.426Z,100468.03
2023-02-11T20:31:39.175Z,100465.13
2023-02-11T20:34:05.807Z,100467.22
2023-02-11T20:36:35.639Z,100478.69
2023-02-11T20:39:04.809Z,100479.31
2023-02-11T20:41:34.342Z,100482.75
2023-02-11T20:44:04.556Z,100486.84
2023-02-11T20:46:33.207Z,100477.22
2023-02-11T20:49:00.244Z,100471.69
2023-02-11T20:51:29.978Z,100488.50
2023-02-11T20:53:57.174Z,100480.31
2023-02-11T20:56:27.178Z,100480.25
2023-02-11T20:58:53.979Z,100471.34
2023-02-11T21:01:29.537Z,100469.09
2023-02-11T21:04:07.851Z,100470.84
2023-02-11T21:06:37.146Z,100467.00
2023-02-11T21:09:06.304Z,100467.22
2023-02-11T21:11:32.804Z,100464.16
2023-02-11T21:13:59.880Z,100465.09
2023-02-11T21:16:27.116Z,100468.03
2023-02-11T21:18:55.358Z,100466.94
2023-02-11T21:21:22.335Z,100461.22
2023-02-11T21:23:48.877Z,100457.13
2023-02-11T21:26:16.972Z,100461.97
2023-02-11T21:28:44.044Z,100458.81
2023-02-11T21:31:19.908Z,100454.13
2023-02-11T21:33:46.579Z,100445.56
2023-02-11T21:36:15.002Z,100455.69
2023-02-11T21:38:41.921Z,100458.50
2023-02-11T21:41:08.702Z,100464.59
2023-02-11T21:43:35.238Z,100460.84
2023-02-11T21:46:12.196Z,100467.59
2023-02-11T21:48:38.684Z,100461.25
2023-02-11T21:51:07.864Z,100467.19
2023-02-11T21:53:35.506Z,100462.38
2023-02-11T21:56:06.048Z,100460.00
2023-02-11T21:58:33.162Z,100460.41
2023-02-11T22:00:59.867Z,100473.66
2023-02-11T22:03:26.717Z,100468.03
2023-02-11T22:05:54.034Z,100471.19
2023-02-11T22:08:20.773Z,100470.78
2023-02-11T22:10:47.317Z,100478.53
2023-02-11T22:13:13.883Z,100473.00
2023-02-11T22:15:40.438Z,100472.09
2023-02-11T22:18:07.074Z,100478.13
2023-02-11T22:20:33.667Z,100481.25
2023-02-11T22:23:00.209Z,100490.88
2023-02-11T22:25:26.730Z,100487.28
2023-02-11T22:27:53.314Z,100488.66
2023-02-11T22:30:20.132Z,100483.13
2023-02-11T22:32:47.420Z,100490.34
2023-02-11T22:35:14.109Z,100495.97
2023-02-11T22:37:40.726Z,100495.25
2023-02-11T22:40:07.933Z,100505.72
2023-02-11T22:42:34.636Z,100501.84
2023-02-11T22:45:01.229Z,100500.59
2023-02-11T22:47:27.752Z,100503.63
2023-02-11T22:49:54.268Z,100498.59
2023-02-11T22:52:22.348Z,100495.03
2023-02-11T22:54:51.285Z,100500.47
2023-02-11T22:57:17.752Z,100502.31
2023-02-11T22:59:44.372Z,100508.00
2023-02-11T23:02:11.130Z,100497.97
2023-02-11T23:04:37.716Z,100512.72
2023-02-11T23:07:04.211Z,100515.19
2023-02-11T23:09:30.693Z,100506.22
2023-02-11T23:11:57.838Z,100504.28
2023-02-11T23:14:24.450Z,100499.53
2023-02-11T23:16:51.488Z,100501.03
2023-02-11T23:19:18.119Z,100496.91
2023-02-11T23:21:44.651Z,100504.47
2023-02-11T23:24:14.135Z,100499.91
2023-02-11T23:26:42.927Z,100492.78
2023-02-11T23:29:10.760Z,100490.56
2023-02-11T23:31:40.542Z,100487.34
2023-02-11T23:34:08.691Z,100490.28
2023-02-11T23:36:35.376Z,100502.81
2023-02-11T23:39:02.376Z,100499.25
2023-02-11T23:41:29.025Z,100503.66
2023-02-11T23:43:57.465Z,100505.91
2023-02-11T23:46:25.636Z,100495.78
2023-02-11T23:48:53.196Z,100503.56
2023-02-11T23:51:21.102Z,100508.63
2023-02-11T23:53:49.908Z,100505.50
2023-02-11T23:56:19.625Z,100510.94
2023-02-11T23:58:51.050Z,100508.06
